Time;durP1;ratioP1;P1;durP2;ratioP2;P2;SDS_P1;SDS_P2;PMS_P1;PMS_P2;Temp;Humidity;BMP_temperature;BMP_pressure;BME280_temperature;BME280_humidity;BME280_pressure;Samples;Min_cycle;Max_cycle;Signal;HPM_P1;HPM_P2
2021/01/27 00:00:13;;;;;;;14.32;6.95;;;0.90;99.90;;;;;;5031020;28;20025;-64
2021/01/27 00:03:01;;;;;;;15.73;7.03;;;0.90;99.90;;;;;;5031835;28;20444;-63
2021/01/27 00:05:50;;;;;;;13.32;6.70;;;0.90;99.90;;;;;;5018565;28;20073;-63
2021/01/27 00:08:36;;;;;;;13.50;6.25;;;0.90;99.90;;;;;;5031435;28;20124;-64
2021/01/27 00:11:22;;;;;;;12.55;6.53;;;0.90;99.90;;;;;;5030786;28;20545;-64
2021/01/27 00:14:08;;;;;;;14.15;7.00;;;0.90;99.90;;;;;;5017633;28;20060;-64
2021/01/27 00:16:54;;;;;;;14.05;6.65;;;1.00;99.90;;;;;;5031574;28;20135;-63
2021/01/27 00:19:40;;;;;;;10.38;6.03;;;1.00;99.90;;;;;;5032327;28;20569;-63
2021/01/27 00:22:26;;;;;;;15.02;6.55;;;1.00;99.90;;;;;;5032026;28;20033;-63
2021/01/27 00:25:14;;;;;;;12.60;6.20;;;1.00;99.90;;;;;;5031634;28;20072;-64
2021/01/27 00:28:02;;;;;;;13.15;6.03;;;1.00;99.90;;;;;;5030953;28;20036;-64
2021/01/27 00:30:48;;;;;;;15.65;6.25;;;1.00;99.90;;;;;;5004269;28;20036;-64
2021/01/27 00:33:34;;;;;;;13.13;5.90;;;1.00;99.90;;;;;;5030558;28;20045;-64
2021/01/27 00:36:20;;;;;;;14.35;6.35;;;1.00;99.90;;;;;;5031037;28;20046;-64
2021/01/27 00:39:06;;;;;;;13.00;6.13;;;1.10;99.90;;;;;;5017270;28;20072;-64
2021/01/27 00:41:52;;;;;;;11.77;5.65;;;1.10;99.90;;;;;;5032554;28;20042;-64
2021/01/27 00:44:38;;;;;;;9.65;5.25;;;1.10;99.90;;;;;;5030504;28;20038;-64
2021/01/27 00:47:24;;;;;;;8.77;4.95;;;1.10;99.90;;;;;;5031263;28;20045;-64
2021/01/27 00:50:12;;;;;;;10.15;5.13;;;1.00;99.90;;;;;;5032434;28;20083;-64
2021/01/27 00:52:58;;;;;;;9.20;5.10;;;0.90;99.90;;;;;;5031160;28;20037;-63
2021/01/27 00:55:44;;;;;;;10.95;5.85;;;1.00;99.90;;;;;;5032141;28;20033;-64
2021/01/27 00:58:30;;;;;;;10.32;4.75;;;1.10;99.90;;;;;;5032768;28;20510;-64
2021/01/27 01:01:16;;;;;;;10.32;5.40;;;1.10;99.90;;;;;;5035628;28;20030;-64
2021/01/27 01:04:05;;;;;;;11.10;5.50;;;1.10;99.90;;;;;;5034945;28;20038;-63
2021/01/27 01:06:51;;;;;;;9.77;4.78;;;0.90;99.90;;;;;;5033710;28;20045;-64
2021/01/27 01:09:37;;;;;;;13.18;5.03;;;1.00;99.90;;;;;;5034045;28;20044;-64
2021/01/27 01:12:23;;;;;;;8.80;4.63;;;1.00;99.90;;;;;;5034403;28;20052;-64
2021/01/27 01:15:10;;;;;;;11.27;4.72;;;0.90;99.90;;;;;;5034900;28;20036;-64
2021/01/27 01:17:57;;;;;;;9.85;5.38;;;1.00;99.90;;;;;;5035273;28;20597;-63
2021/01/27 01:20:44;;;;;;;11.20;4.78;;;0.90;99.90;;;;;;5034634;28;20041;-63
2021/01/27 01:23:30;;;;;;;12.15;4.82;;;1.00;99.90;;;;;;5035375;28;20034;-63
2021/01/27 01:26:16;;;;;;;15.15;5.10;;;1.00;99.90;;;;;;5033979;28;20548;-63
2021/01/27 01:29:03;;;;;;;8.70;4.18;;;1.10;99.90;;;;;;5033858;28;20104;-63
2021/01/27 01:31:49;;;;;;;10.30;4.78;;;1.10;99.90;;;;;;5035763;28;20064;-64
2021/01/27 01:34:35;;;;;;;9.00;4.85;;;1.10;99.90;;;;;;5034119;28;20041;-65
2021/01/27 01:37:21;;;;;;;9.48;4.72;;;1.10;99.90;;;;;;5033984;28;20425;-64
2021/01/27 01:40:15;;;;;;;8.77;4.95;;;1.10;99.90;;;;;;5033801;28;20045;-64
2021/01/27 01:43:16;;;;;;;10.77;4.70;;;1.10;99.90;;;;;;5034907;28;20410;-64
2021/01/27 01:46:16;;;;;;;10.93;4.72;;;1.10;99.90;;;;;;5034186;28;20026;-64
2021/01/27 01:49:07;;;;;;;12.13;4.83;;;1.00;99.90;;;;;;5034051;28;20080;-64
2021/01/27 01:51:57;;;;;;;12.80;4.95;;;0.90;99.90;;;;;;5034656;28;20295;-64
2021/01/27 01:54:52;;;;;;;10.43;5.07;;;0.90;99.90;;;;;;5033922;28;20041;-64
2021/01/27 01:57:38;;;;;;;13.38;5.55;;;1.00;99.90;;;;;;5033312;28;20371;-64
2021/01/27 02:00:27;;;;;;;9.57;4.20;;;1.10;99.90;;;;;;5019754;28;20052;-64
2021/01/27 02:03:13;;;;;;;11.27;5.05;;;1.10;99.90;;;;;;5019483;28;20036;-64
2021/01/27 02:06:09;;;;;;;10.57;4.57;;;1.10;99.90;;;;;;5033101;28;20050;-63
2021/01/27 02:08:58;;;;;;;14.10;4.72;;;1.10;99.90;;;;;;5033750;28;20037;-64
2021/01/27 02:12:02;;;;;;;15.48;4.72;;;1.20;99.90;;;;;;5032374;28;20041;-63
2021/01/27 02:14:51;;;;;;;11.38;4.97;;;1.10;99.90;;;;;;5033139;28;20030;-64
2021/01/27 02:18:22;;;;;;;11.80;5.40;;;1.10;99.90;;;;;;5034676;28;20036;-64
2021/01/27 02:21:44;;;;;;;9.90;4.60;;;1.10;99.90;;;;;;5022710;28;20033;-63
2021/01/27 02:25:27;;;;;;;13.45;5.18;;;1.00;99.90;;;;;;5032417;28;20379;-64
2021/01/27 02:28:41;;;;;;;11.93;6.10;;;1.00;99.90;;;;;;5032925;28;20545;-64
2021/01/27 02:31:53;;;;;;;7.57;4.15;;;1.00;99.90;;;;;;5033654;28;20025;-64
2021/01/27 02:34:59;;;;;;;8.95;4.72;;;1.00;99.90;;;;;;5032659;28;20087;-65
2021/01/27 02:37:59;;;;;;;9.73;4.40;;;1.00;99.90;;;;;;5032353;28;20091;-64
2021/01/27 02:41:09;;;;;;;9.32;4.30;;;1.20;99.90;;;;;;5020151;28;20041;-64
2021/01/27 02:44:02;;;;;;;9.77;4.28;;;1.10;99.90;;;;;;5033276;28;20457;-64
2021/01/27 02:46:52;;;;;;;10.25;3.97;;;1.20;99.90;;;;;;5020062;28;20034;-64
2021/01/27 02:49:44;;;;;;;8.83;4.50;;;1.20;99.90;;;;;;5032436;28;20083;-64
2021/01/27 02:52:41;;;;;;;10.57;4.15;;;1.20;99.90;;;;;;5034074;28;20268;-63
2021/01/27 02:55:44;;;;;;;9.43;4.40;;;1.20;99.90;;;;;;5032949;28;20494;-64
2021/01/27 02:58:53;;;;;;;10.00;4.00;;;1.20;99.90;;;;;;5019715;28;20057;-64
2021/01/27 03:01:47;;;;;;;8.52;3.88;;;1.20;99.90;;;;;;5033251;28;20038;-64
2021/01/27 03:04:40;;;;;;;8.63;4.13;;;1.10;99.90;;;;;;5019326;28;20048;-64
2021/01/27 03:07:29;;;;;;;8.18;4.43;;;1.20;99.90;;;;;;5019282;28;20399;-64
2021/01/27 03:10:35;;;;;;;9.75;4.03;;;1.10;99.90;;;;;;5018499;28;20031;-64
2021/01/27 03:13:21;;;;;;;9.73;4.00;;;1.20;99.90;;;;;;5018614;28;20041;-63
2021/01/27 03:16:35;;;;;;;12.13;4.22;;;1.10;99.90;;;;;;5032115;28;20049;-64
2021/01/27 03:20:15;;;;;;;10.50;4.00;;;1.20;99.90;;;;;;5021231;28;20482;-64
2021/01/27 03:23:09;;;;;;;12.75;4.07;;;1.20;99.90;;;;;;4974127;28;20490;-64
2021/01/27 03:26:04;;;;;;;8.05;3.92;;;1.20;99.90;;;;;;5018862;28;20041;-64
2021/01/27 03:29:05;;;;;;;10.60;4.43;;;1.20;99.90;;;;;;5019060;28;20116;-64
2021/01/27 03:31:55;;;;;;;7.87;4.23;;;1.20;99.90;;;;;;5031949;28;20087;-64
2021/01/27 03:34:47;;;;;;;10.57;4.68;;;1.20;99.90;;;;;;5018477;28;20032;-64
2021/01/27 03:37:57;;;;;;;8.98;4.60;;;1.20;99.90;;;;;;5016942;28;20080;-64
2021/01/27 03:40:46;;;;;;;10.77;4.45;;;1.10;99.90;;;;;;5019726;28;20041;-64
2021/01/27 03:43:44;;;;;;;9.88;4.68;;;1.20;99.90;;;;;;5017672;28;20041;-64
2021/01/27 03:46:43;;;;;;;11.05;4.70;;;1.20;99.90;;;;;;5018966;28;20563;-65
2021/01/27 03:49:43;;;;;;;11.82;5.18;;;1.10;99.90;;;;;;5017744;28;20627;-65
2021/01/27 03:52:39;;;;;;;12.02;5.15;;;1.10;99.90;;;;;;5017114;28;20064;-64
2021/01/27 03:55:48;;;;;;;10.48;4.68;;;1.10;99.90;;;;;;5032398;28;20045;-64
2021/01/27 03:58:41;;;;;;;10.95;4.90;;;1.10;99.90;;;;;;5019073;28;20050;-64
2021/01/27 04:01:27;;;;;;;10.00;5.10;;;1.10;99.90;;;;;;5018361;28;20241;-64
2021/01/27 04:04:13;;;;;;;11.55;5.43;;;1.10;99.90;;;;;;5017395;28;20061;-63
2021/01/27 04:06:59;;;;;;;13.82;4.47;;;1.10;99.90;;;;;;5031079;28;20406;-64
2021/01/27 04:09:45;;;;;;;10.43;4.75;;;1.10;99.90;;;;;;5033432;28;20505;-64
2021/01/27 04:12:31;;;;;;;13.43;6.22;;;1.20;99.90;;;;;;5032336;28;20040;-64
2021/01/27 04:15:17;;;;;;;11.25;5.07;;;1.20;99.90;;;;;;5032740;28;20033;-64
2021/01/27 04:18:04;;;;;;;11.27;5.60;;;1.20;99.90;;;;;;5032625;28;20111;-64
2021/01/27 04:20:50;;;;;;;11.05;5.53;;;1.20;99.90;;;;;;5033581;28;20045;-64
2021/01/27 04:23:36;;;;;;;9.38;4.75;;;1.20;99.90;;;;;;5031072;28;20029;-64
2021/01/27 04:26:22;;;;;;;14.35;5.03;;;1.20;99.90;;;;;;5032110;28;20045;-64
2021/01/27 04:29:08;;;;;;;16.83;4.97;;;1.20;99.90;;;;;;5018457;28;20065;-64
2021/01/27 04:31:54;;;;;;;9.23;4.53;;;1.30;99.90;;;;;;5032412;28;20493;-64
2021/01/27 04:34:40;;;;;;;14.07;5.00;;;1.20;99.90;;;;;;5031613;28;20088;-64
2021/01/27 04:37:26;;;;;;;13.48;5.78;;;1.20;99.90;;;;;;5031853;28;20048;-63
2021/01/27 04:40:31;;;;;;;15.50;5.25;;;1.20;99.90;;;;;;5031208;28;20103;-64
2021/01/27 04:43:34;;;;;;;17.08;5.05;;;1.10;99.90;;;;;;5030330;28;20033;-63
2021/01/27 04:46:29;;;;;;;13.48;6.03;;;1.10;99.90;;;;;;5017828;28;20076;-64
2021/01/27 04:49:22;;;;;;;13.80;5.85;;;1.10;99.90;;;;;;5018635;28;20468;-63
2021/01/27 04:52:20;;;;;;;9.45;5.32;;;1.00;99.90;;;;;;5016172;28;20025;-63
2021/01/27 04:55:49;;;;;;;15.93;5.57;;;1.10;99.90;;;;;;4997919;28;20483;-64
2021/01/27 04:59:08;;;;;;;13.10;6.45;;;1.20;99.90;;;;;;5011895;28;20060;-65
2021/01/27 05:02:41;;;;;;;14.30;6.53;;;1.30;99.90;;;;;;5013043;28;20038;-64
2021/01/27 05:05:34;;;;;;;12.98;5.90;;;1.50;99.90;;;;;;5011703;28;20487;-63
2021/01/27 05:08:31;;;;;;;13.57;6.38;;;1.50;99.90;;;;;;4998734;28;20026;-64
2021/01/27 05:11:20;;;;;;;12.00;5.88;;;1.50;99.90;;;;;;4997505;28;20125;-64
2021/01/27 05:14:08;;;;;;;11.55;6.53;;;1.50;99.90;;;;;;5007786;28;20041;-64
2021/01/27 05:16:58;;;;;;;13.27;6.00;;;1.40;99.90;;;;;;5030273;28;20091;-64
2021/01/27 05:19:47;;;;;;;12.52;6.38;;;1.50;99.90;;;;;;5017706;28;20462;-64
2021/01/27 05:22:34;;;;;;;16.15;6.25;;;1.30;99.90;;;;;;5016426;28;20040;-63
2021/01/27 05:25:58;;;;;;;11.52;5.78;;;1.20;99.90;;;;;;5030931;28;20129;-62
2021/01/27 05:28:53;;;;;;;13.70;6.38;;;1.20;99.90;;;;;;5019305;28;20116;-62
2021/01/27 05:32:12;;;;;;;12.40;6.72;;;1.20;99.90;;;;;;5018028;28;20449;-63
2021/01/27 05:34:58;;;;;;;14.02;6.70;;;1.20;99.90;;;;;;5016829;28;20045;-62
2021/01/27 05:37:44;;;;;;;15.38;6.68;;;1.20;99.90;;;;;;5030540;28;20033;-62
2021/01/27 05:40:36;;;;;;;15.95;6.47;;;1.20;99.90;;;;;;5026761;28;20515;-63
2021/01/27 05:43:25;;;;;;;15.20;6.45;;;1.20;99.90;;;;;;5015897;28;20099;-63
2021/01/27 05:46:35;;;;;;;14.20;6.18;;;1.10;99.90;;;;;;5018270;28;20158;-63
2021/01/27 05:49:30;;;;;;;15.55;6.45;;;1.20;99.90;;;;;;5033913;28;20038;-61
2021/01/27 05:52:26;;;;;;;11.88;6.53;;;1.20;99.90;;;;;;5034823;28;20092;-62
2021/01/27 05:55:12;;;;;;;15.52;6.60;;;1.30;99.90;;;;;;5020425;28;20029;-62
2021/01/27 05:57:59;;;;;;;12.75;6.50;;;1.30;99.90;;;;;;5019636;28;20061;-63
2021/01/27 06:00:45;;;;;;;15.52;6.53;;;1.10;99.90;;;;;;5035304;28;20041;-64
2021/01/27 06:03:31;;;;;;;12.80;6.53;;;1.20;99.90;;;;;;5033915;28;20041;-64
2021/01/27 06:06:18;;;;;;;15.65;6.28;;;1.20;99.90;;;;;;5020409;28;20079;-63
2021/01/27 06:09:06;;;;;;;15.55;6.28;;;1.20;99.90;;;;;;5007313;28;20033;-61
2021/01/27 06:12:20;;;;;;;13.35;6.57;;;1.20;99.90;;;;;;5019500;28;20076;-61
2021/01/27 06:15:06;;;;;;;12.30;5.57;;;1.20;99.90;;;;;;5033073;28;20053;-62
2021/01/27 06:17:52;;;;;;;21.13;6.15;;;1.30;99.90;;;;;;5032871;28;20506;-63
2021/01/27 06:20:38;;;;;;;12.80;6.35;;;1.20;99.90;;;;;;5033831;28;20129;-63
2021/01/27 06:24:09;;;;;;;17.25;7.22;;;1.20;99.90;;;;;;5018429;28;20041;-63
2021/01/27 06:27:36;;;;;;;12.02;6.38;;;1.20;99.90;;;;;;4988147;28;20042;-64
2021/01/27 06:30:55;;;;;;;13.02;6.35;;;1.20;99.90;;;;;;5002048;28;20038;-64
2021/01/27 06:34:16;;;;;;;10.85;5.93;;;1.20;99.90;;;;;;5014785;28;20029;-64
2021/01/27 06:37:27;;;;;;;14.90;6.10;;;1.20;99.90;;;;;;5015087;28;20087;-64
2021/01/27 06:40:50;;;;;;;13.93;6.28;;;1.30;99.90;;;;;;5001187;28;20120;-63
2021/01/27 06:44:18;;;;;;;14.65;6.82;;;1.40;99.90;;;;;;5019891;28;20116;-65
2021/01/27 06:47:35;;;;;;;11.32;5.53;;;1.30;99.90;;;;;;5013886;28;20057;-64
2021/01/27 06:50:40;;;;;;;16.55;6.22;;;1.40;99.90;;;;;;5015095;28;20041;-64
2021/01/27 06:54:05;;;;;;;12.35;6.15;;;1.50;99.90;;;;;;5013590;28;20440;-64
2021/01/27 06:57:26;;;;;;;10.55;5.55;;;1.60;99.90;;;;;;5000760;28;20406;-64
2021/01/27 07:00:45;;;;;;;13.23;5.95;;;1.50;99.90;;;;;;5012835;28;20064;-63
2021/01/27 07:03:44;;;;;;;10.10;5.60;;;1.50;99.90;;;;;;5000380;28;20042;-64
2021/01/27 07:06:58;;;;;;;16.90;5.78;;;1.50;99.90;;;;;;5014433;28;20048;-63
2021/01/27 07:10:18;;;;;;;8.43;4.28;;;1.60;99.90;;;;;;5011808;28;20072;-63
2021/01/27 07:13:29;;;;;;;10.30;5.75;;;1.50;99.90;;;;;;5016171;28;20042;-63
2021/01/27 07:16:30;;;;;;;13.30;5.90;;;1.50;99.90;;;;;;5032382;28;20040;-63
2021/01/27 07:19:28;;;;;;;14.98;6.22;;;1.50;99.90;;;;;;5032435;28;20076;-64
2021/01/27 07:22:24;;;;;;;13.07;6.43;;;1.40;99.90;;;;;;5031887;28;20022;-64
2021/01/27 07:25:21;;;;;;;17.15;6.60;;;1.40;99.90;;;;;;5017814;28;20041;-62
2021/01/27 07:28:21;;;;;;;14.93;6.22;;;1.40;99.90;;;;;;5015330;28;20120;-62
2021/01/27 07:31:30;;;;;;;13.43;6.00;;;1.40;99.90;;;;;;5018480;28;20038;-64
2021/01/27 07:34:26;;;;;;;17.33;6.18;;;1.50;99.90;;;;;;5018298;28;20167;-64
2021/01/27 07:37:35;;;;;;;12.40;6.03;;;1.40;99.90;;;;;;5032673;28;20380;-64
2021/01/27 07:40:41;;;;;;;15.23;5.95;;;1.50;99.90;;;;;;5031504;28;20041;-62
2021/01/27 07:44:05;;;;;;;13.48;6.22;;;1.50;99.90;;;;;;5032561;28;20120;-63
2021/01/27 07:47:46;;;;;;;14.27;6.38;;;1.50;99.90;;;;;;4997939;28;20038;-63
2021/01/27 07:50:32;;;;;;;17.00;6.63;;;1.40;99.90;;;;;;5022173;28;20033;-63
2021/01/27 07:53:27;;;;;;;10.52;6.40;;;1.30;99.90;;;;;;5016938;28;20040;-64
2021/01/27 07:56:24;;;;;;;13.80;6.82;;;1.30;99.90;;;;;;5018619;28;20676;-63
2021/01/27 07:59:53;;;;;;;17.50;7.35;;;1.40;99.90;;;;;;5005105;28;20077;-64
2021/01/27 08:03:18;;;;;;;26.77;8.13;;;1.20;99.90;;;;;;5011124;28;20045;-63
2021/01/27 08:06:19;;;;;;;17.17;7.15;;;1.30;99.90;;;;;;5031687;28;20034;-63
2021/01/27 08:09:06;;;;;;;14.23;5.93;;;1.30;99.90;;;;;;5017202;28;20544;-65
2021/01/27 08:12:07;;;;;;;15.50;7.35;;;1.30;99.90;;;;;;5032880;28;20125;-64
2021/01/27 08:15:02;;;;;;;15.65;7.40;;;1.20;99.90;;;;;;5021189;28;20029;-62
2021/01/27 08:18:12;;;;;;;13.40;7.10;;;1.30;99.90;;;;;;5031574;28;20164;-64
2021/01/27 08:21:17;;;;;;;15.88;7.57;;;1.20;99.90;;;;;;5031367;28;20052;-64
2021/01/27 08:24:03;;;;;;;16.92;8.05;;;1.20;99.90;;;;;;5032286;28;20516;-64
2021/01/27 08:26:52;;;;;;;21.02;8.13;;;1.20;99.90;;;;;;5017426;28;20084;-62
2021/01/27 08:30:02;;;;;;;17.45;8.20;;;1.20;99.90;;;;;;5016746;28;20021;-63
2021/01/27 08:32:48;;;;;;;18.27;8.30;;;1.10;99.90;;;;;;5018350;28;20495;-62
2021/01/27 08:35:55;;;;;;;17.33;7.82;;;1.20;99.90;;;;;;5031091;28;20060;-63
2021/01/27 08:38:55;;;;;;;17.30;8.45;;;1.10;99.90;;;;;;5031513;28;20026;-63
2021/01/27 08:41:58;;;;;;;20.67;7.37;;;1.00;99.90;;;;;;5031759;28;20286;-63
2021/01/27 08:44:45;;;;;;;13.93;7.68;;;1.00;99.90;;;;;;5036976;28;20037;-63
2021/01/27 08:47:39;;;;;;;19.20;8.35;;;1.00;99.90;;;;;;5051142;28;20041;-63
2021/01/27 08:50:34;;;;;;;17.15;9.25;;;1.00;99.90;;;;;;5036363;28;20489;-63
2021/01/27 08:53:54;;;;;;;15.88;8.40;;;1.00;99.90;;;;;;5051089;28;20041;-63
2021/01/27 08:57:17;;;;;;;19.35;8.25;;;1.00;99.90;;;;;;5037016;28;20052;-64
2021/01/27 09:00:13;;;;;;;20.27;8.82;;;1.00;99.90;;;;;;5050022;28;20041;-64
2021/01/27 09:03:02;;;;;;;18.00;8.57;;;1.00;99.90;;;;;;5037025;28;20044;-62
2021/01/27 09:05:48;;;;;;;20.85;9.65;;;1.00;99.90;;;;;;5051470;28;20072;-62
2021/01/27 09:08:35;;;;;;;19.30;8.65;;;1.00;99.90;;;;;;5051555;28;20060;-63
2021/01/27 09:11:22;;;;;;;22.85;9.27;;;1.00;99.90;;;;;;5051830;28;20477;-63
2021/01/27 09:14:14;;;;;;;16.88;8.60;;;1.00;99.90;;;;;;5025024;28;20469;-63
2021/01/27 09:17:01;;;;;;;;;;;1.00;99.90;;;;;;5018103;28;20045;-63
2021/01/27 09:19:55;;;;;;;19.00;8.07;;;1.00;99.90;;;;;;5018861;28;20266;-63
2021/01/27 09:22:41;;;;;;;16.48;7.65;;;1.00;99.90;;;;;;5020594;28;20048;-64
2021/01/27 09:25:29;;;;;;;18.95;7.85;;;1.00;99.90;;;;;;5019918;28;20030;-63
2021/01/27 09:28:24;;;;;;;16.77;8.57;;;1.00;99.90;;;;;;5033828;28;20120;-63
2021/01/27 09:31:28;;;;;;;13.65;7.00;;;1.00;99.90;;;;;;5020412;28;20127;-63
2021/01/27 09:34:23;;;;;;;15.77;7.93;;;1.00;99.90;;;;;;5033959;28;20064;-63
2021/01/27 09:37:21;;;;;;;25.65;9.10;;;1.00;99.90;;;;;;5034895;28;20107;-63
2021/01/27 09:40:34;;;;;;;16.65;7.78;;;1.00;99.90;;;;;;5018993;28;20068;-63
2021/01/27 09:43:23;;;;;;;17.48;8.27;;;1.00;99.90;;;;;;5021077;28;20379;-63
2021/01/27 09:46:33;;;;;;;18.40;8.35;;;0.90;99.90;;;;;;5019398;28;20037;-64
2021/01/27 09:49:20;;;;;;;15.48;8.25;;;0.90;99.90;;;;;;5021148;28;20042;-63
2021/01/27 09:52:12;;;;;;;15.10;8.13;;;0.90;99.90;;;;;;5021148;28;20498;-64
2021/01/27 09:55:19;;;;;;;15.85;8.13;;;0.90;99.90;;;;;;5020025;28;20037;-63
2021/01/27 09:58:05;;;;;;;15.95;8.02;;;0.90;99.90;;;;;;5019650;28;20529;-65
2021/01/27 10:01:00;;;;;;;19.85;9.13;;;0.90;99.90;;;;;;5020374;28;20037;-63
2021/01/27 10:03:54;;;;;;;18.40;8.15;;;0.90;99.90;;;;;;5020641;28;20038;-63
2021/01/27 10:06:54;;;;;;;12.43;7.32;;;0.80;99.90;;;;;;5020493;28;20032;-64
2021/01/27 10:10:08;;;;;;;11.38;6.47;;;0.90;99.90;;;;;;5020684;28;20042;-65
2021/01/27 10:12:57;;;;;;;10.23;6.20;;;1.00;99.90;;;;;;5021362;28;20463;-65
2021/01/27 10:15:43;;;;;;;10.70;5.78;;;1.00;99.90;;;;;;5033502;28;20037;-66
2021/01/27 10:18:29;;;;;;;11.88;6.65;;;1.10;99.90;;;;;;5054496;28;20480;-63
2021/01/27 10:21:16;;;;;;;14.52;7.50;;;1.00;99.90;;;;;;5054371;28;20124;-65
2021/01/27 10:24:06;;;;;;;13.13;6.68;;;1.00;99.90;;;;;;5024922;28;20144;-64
2021/01/27 10:27:05;;;;;;;10.25;5.28;;;1.00;99.90;;;;;;5038561;28;20041;-64
2021/01/27 10:29:51;;;;;;;10.35;6.40;;;1.00;99.90;;;;;;5039300;28;20037;-64
2021/01/27 10:32:41;;;;;;;18.45;6.78;;;1.00;99.90;;;;;;5037560;28;20055;-64
2021/01/27 10:35:32;;;;;;;11.02;5.82;;;1.00;99.90;;;;;;5054215;28;20037;-64
2021/01/27 10:38:23;;;;;;;13.50;6.50;;;1.00;99.90;;;;;;5038760;28;20041;-64
2021/01/27 10:41:21;;;;;;;10.20;6.05;;;1.00;99.90;;;;;;5025071;28;20048;-64
2021/01/27 10:44:27;;;;;;;13.75;6.05;;;1.00;99.90;;;;;;5030397;28;20037;-64
2021/01/27 10:47:29;;;;;;;16.40;6.82;;;1.10;99.90;;;;;;5052207;28;20037;-64
2021/01/27 10:50:16;;;;;;;11.07;5.90;;;1.10;99.90;;;;;;5039658;28;20430;-65
2021/01/27 10:53:05;;;;;;;17.65;6.38;;;1.10;99.90;;;;;;5053561;28;20033;-64
2021/01/27 10:55:56;;;;;;;14.98;7.15;;;1.20;99.90;;;;;;5038385;28;20041;-65
2021/01/27 10:58:42;;;;;;;15.52;6.18;;;1.20;99.90;;;;;;5051002;28;20088;-65
2021/01/27 11:01:28;;;;;;;12.25;6.20;;;1.20;99.90;;;;;;5052465;28;20085;-66
2021/01/27 11:04:14;;;;;;;15.43;6.43;;;1.30;99.90;;;;;;5051608;28;20502;-65
2021/01/27 11:07:00;;;;;;;14.68;6.72;;;1.40;99.90;;;;;;5039591;28;20508;-64
2021/01/27 11:09:46;;;;;;;16.10;7.82;;;1.50;99.90;;;;;;5037244;28;20527;-65
2021/01/27 11:12:33;;;;;;;11.90;6.75;;;1.50;99.90;;;;;;5053709;28;20059;-66
2021/01/27 11:15:19;;;;;;;13.63;5.80;;;1.50;99.90;;;;;;5014407;28;20081;-65
2021/01/27 11:18:06;;;;;;;11.48;6.97;;;1.50;99.90;;;;;;5012226;28;20377;-64
2021/01/27 11:20:52;;;;;;;16.83;7.40;;;1.40;99.90;;;;;;5013165;28;20482;-65
2021/01/27 11:23:38;;;;;;;12.05;6.82;;;1.40;99.90;;;;;;4998677;28;20128;-65
2021/01/27 11:26:24;;;;;;;11.88;6.90;;;1.30;99.90;;;;;;5014115;28;20030;-64
2021/01/27 11:29:10;;;;;;;14.15;7.57;;;1.30;99.90;;;;;;5013404;28;20041;-65
2021/01/27 11:31:56;;;;;;;12.93;8.18;;;1.40;99.90;;;;;;5013748;28;20044;-64
2021/01/27 11:34:42;;;;;;;14.88;7.20;;;1.40;99.90;;;;;;5013679;28;20406;-65
2021/01/27 11:37:28;;;;;;;12.50;7.75;;;1.40;99.90;;;;;;5013262;28;20049;-64
2021/01/27 11:40:19;;;;;;;12.50;7.47;;;1.40;99.90;;;;;;5014002;28;20081;-64
2021/01/27 11:43:05;;;;;;;16.70;6.57;;;1.40;99.90;;;;;;5028032;28;20042;-64
2021/01/27 11:45:51;;;;;;;13.38;7.43;;;1.50;99.90;;;;;;5032550;28;20041;-63
2021/01/27 11:48:37;;;;;;;11.02;6.35;;;1.40;99.90;;;;;;5018550;28;20545;-63
2021/01/27 11:51:24;;;;;;;12.57;6.88;;;1.50;99.90;;;;;;5031648;28;20464;-63
2021/01/27 11:54:10;;;;;;;12.32;7.07;;;1.40;99.90;;;;;;5033633;28;20037;-63
2021/01/27 11:56:57;;;;;;;12.80;7.50;;;1.40;99.90;;;;;;5016376;28;20123;-64
2021/01/27 11:59:43;;;;;;;11.45;6.65;;;1.40;99.90;;;;;;5026574;28;20105;-64
2021/01/27 12:02:29;;;;;;;14.52;6.43;;;1.30;99.90;;;;;;5025342;28;20503;-64
2021/01/27 12:05:18;;;;;;;10.95;5.72;;;1.40;99.90;;;;;;5032120;28;20030;-63
2021/01/27 12:08:06;;;;;;;12.60;5.20;;;1.50;99.90;;;;;;5033681;28;20048;-64
2021/01/27 12:10:52;;;;;;;11.75;6.35;;;1.60;99.90;;;;;;5032045;28;20038;-64
2021/01/27 12:13:38;;;;;;;12.50;6.45;;;1.60;99.90;;;;;;5017984;28;20064;-63
2021/01/27 12:16:24;;;;;;;9.85;5.35;;;1.70;99.90;;;;;;5033027;28;20541;-63
2021/01/27 12:19:10;;;;;;;10.68;5.95;;;1.70;99.90;;;;;;5031000;28;20037;-63
2021/01/27 12:21:57;;;;;;;10.82;6.25;;;1.60;99.90;;;;;;5031930;28;20047;-63
2021/01/27 12:24:43;;;;;;;8.20;5.05;;;1.60;99.90;;;;;;5026533;28;20056;-62
2021/01/27 12:27:29;;;;;;;8.25;4.78;;;1.60;99.90;;;;;;5031605;28;20030;-62
2021/01/27 12:30:16;;;;;;;12.27;5.90;;;1.50;99.90;;;;;;5031596;28;20033;-63
2021/01/27 12:33:02;;;;;;;12.63;6.60;;;1.50;99.90;;;;;;5032340;28;20531;-63
2021/01/27 12:35:48;;;;;;;11.35;6.35;;;1.50;99.90;;;;;;5031915;28;20540;-64
2021/01/27 12:38:34;;;;;;;13.57;6.63;;;1.40;99.90;;;;;;5031898;28;20044;-63
2021/01/27 12:41:21;;;;;;;18.02;7.60;;;1.40;99.90;;;;;;5030909;28;20051;-63
2021/01/27 12:44:08;;;;;;;15.23;8.10;;;1.40;99.90;;;;;;5039922;28;20040;-63
2021/01/27 12:46:54;;;;;;;15.07;6.93;;;1.40;99.90;;;;;;5036361;28;20025;-63
2021/01/27 12:49:41;;;;;;;8.68;4.47;;;1.40;99.90;;;;;;5052064;28;20539;-62
2021/01/27 12:52:27;;;;;;;10.50;6.13;;;1.40;99.90;;;;;;5035987;28;20052;-63
2021/01/27 12:55:17;;;;;;;11.93;6.10;;;1.40;99.90;;;;;;5054193;28;20136;-63
2021/01/27 12:58:06;;;;;;;12.57;6.10;;;1.50;99.90;;;;;;5039943;28;20123;-63
2021/01/27 13:00:52;;;;;;;12.57;6.15;;;1.50;99.90;;;;;;5039781;28;20055;-63
2021/01/27 13:03:38;;;;;;;15.38;7.47;;;1.50;99.90;;;;;;5055278;28;20025;-64
2021/01/27 13:06:24;;;;;;;11.30;5.85;;;1.50;99.90;;;;;;5040691;28;20110;-63
2021/01/27 13:09:10;;;;;;;10.60;6.22;;;1.60;99.90;;;;;;5055317;28;20499;-63
2021/01/27 13:11:56;;;;;;;9.35;6.28;;;1.50;99.90;;;;;;5055501;28;20128;-63
2021/01/27 13:14:43;;;;;;;9.10;5.68;;;1.60;99.90;;;;;;5025260;28;20033;-65
2021/01/27 13:17:29;;;;;;;9.68;5.03;;;1.60;99.90;;;;;;5034410;28;20045;-65
2021/01/27 13:20:19;;;;;;;8.95;5.82;;;1.70;99.90;;;;;;5020772;28;20444;-64
2021/01/27 13:23:05;;;;;;;9.77;5.55;;;1.70;99.90;;;;;;5021588;28;20045;-64
2021/01/27 13:25:51;;;;;;;10.75;5.65;;;1.70;99.90;;;;;;5021551;28;20040;-63
2021/01/27 13:28:37;;;;;;;9.88;5.07;;;1.70;99.90;;;;;;5035463;28;20034;-64
2021/01/27 13:31:23;;;;;;;7.75;4.60;;;1.70;99.90;;;;;;5035281;28;20486;-63
2021/01/27 13:34:09;;;;;;;7.82;5.40;;;1.70;99.90;;;;;;5034979;28;20478;-64
2021/01/27 13:36:56;;;;;;;9.45;4.97;;;1.70;99.90;;;;;;5034888;28;20040;-64
2021/01/27 13:39:43;;;;;;;5.97;3.20;;;1.70;99.90;;;;;;5035382;28;20501;-65
2021/01/27 13:42:29;;;;;;;9.27;4.88;;;1.80;99.90;;;;;;5019530;28;20599;-63
2021/01/27 13:45:15;;;;;;;8.25;4.90;;;1.70;99.90;;;;;;5035418;28;20107;-63
2021/01/27 13:48:01;;;;;;;7.40;4.32;;;1.70;99.90;;;;;;5035268;28;20041;-65
2021/01/27 13:50:48;;;;;;;7.68;4.57;;;1.70;99.90;;;;;;5020986;28;20029;-63
2021/01/27 13:53:34;;;;;;;7.97;4.55;;;1.70;99.90;;;;;;5020920;28;20406;-63
2021/01/27 13:56:20;;;;;;;8.07;4.88;;;1.80;99.90;;;;;;5033151;28;20103;-63
2021/01/27 13:59:06;;;;;;;7.88;4.82;;;1.70;99.90;;;;;;5033072;28;20033;-63
2021/01/27 14:01:52;;;;;;;9.05;5.30;;;1.70;99.90;;;;;;5034192;28;20044;-64
2021/01/27 14:04:38;;;;;;;6.28;3.22;;;1.70;99.90;;;;;;5034113;28;20562;-63
2021/01/27 14:07:24;;;;;;;7.88;4.93;;;1.80;99.90;;;;;;5033682;28;20034;-64
2021/01/27 14:10:11;;;;;;;7.95;4.72;;;1.80;99.90;;;;;;5034896;28;20029;-64
2021/01/27 14:12:58;;;;;;;8.75;5.38;;;1.80;99.90;;;;;;5034971;28;20040;-64
2021/01/27 14:15:44;;;;;;;8.50;5.13;;;1.80;99.90;;;;;;5019209;28;20076;-64
2021/01/27 14:18:30;;;;;;;9.23;5.05;;;1.80;99.90;;;;;;5033537;28;20044;-64
2021/01/27 14:21:18;;;;;;;8.60;4.95;;;1.80;99.90;;;;;;5017942;28;20072;-63
2021/01/27 14:24:04;;;;;;;9.95;5.43;;;1.80;99.90;;;;;;5020562;28;20037;-64
2021/01/27 14:26:50;;;;;;;8.77;5.43;;;1.80;99.90;;;;;;5034040;28;20490;-64
2021/01/27 14:29:36;;;;;;;8.85;5.40;;;1.80;99.90;;;;;;5033147;28;20040;-64
2021/01/27 14:32:23;;;;;;;7.43;3.80;;;1.70;99.90;;;;;;5034405;28;20167;-65
2021/01/27 14:35:10;;;;;;;9.82;5.78;;;1.70;99.90;;;;;;5033574;28;20044;-63
2021/01/27 14:37:56;;;;;;;8.52;4.95;;;1.70;99.90;;;;;;5033195;28;20030;-64
2021/01/27 14:40:42;;;;;;;8.07;4.13;;;1.70;99.90;;;;;;5033317;28;20037;-63
2021/01/27 14:43:28;;;;;;;9.65;4.55;;;1.80;99.90;;;;;;5035419;28;20126;-65
2021/01/27 14:46:14;;;;;;;9.25;5.13;;;1.80;99.90;;;;;;5032803;28;20466;-63
2021/01/27 14:49:01;;;;;;;12.30;5.75;;;1.80;99.90;;;;;;5033630;28;20406;-64
2021/01/27 14:51:47;;;;;;;10.20;4.88;;;1.70;99.90;;;;;;5032564;28;20038;-64
2021/01/27 14:54:39;;;;;;;8.52;5.15;;;1.80;99.90;;;;;;5033951;28;20504;-63
2021/01/27 14:57:26;;;;;;;7.95;5.28;;;1.80;99.90;;;;;;5018960;28;20038;-64
2021/01/27 15:00:13;;;;;;;12.85;5.40;;;1.80;99.90;;;;;;5033781;28;20092;-63
2021/01/27 15:02:59;;;;;;;10.88;5.35;;;1.90;99.90;;;;;;5032859;28;20548;-63
2021/01/27 15:05:45;;;;;;;9.98;5.82;;;1.90;99.90;;;;;;5031996;28;20040;-63
2021/01/27 15:08:31;;;;;;;9.90;5.93;;;1.90;99.90;;;;;;5033667;28;20037;-62